Time;durP1;ratioP1;P1;durP2;ratioP2;P2;SDS_P1;SDS_P2;PMS_P1;PMS_P2;Temp;Humidity;BMP_temperature;BMP_pressure;BME280_temperature;BME280_humidity;BME280_pressure;Samples;Min_cycle;Max_cycle;Signal;HPM_P1;HPM_P2
2021/01/11 00:02:26;;;;;;;18.23;11.27;;;-5.30;99.90;;;;;;5093488;28;20442;-85
2021/01/11 00:04:52;;;;;;;27.43;12.40;;;-5.30;99.90;;;;;;5092192;28;20549;-86
2021/01/11 00:07:19;;;;;;;25.77;13.50;;;-5.30;99.90;;;;;;5093647;28;20500;-87
2021/01/11 00:09:45;;;;;;;22.27;11.40;;;-5.20;99.90;;;;;;5093630;28;20881;-87
2021/01/11 00:12:12;;;;;;;21.60;11.63;;;-5.30;99.90;;;;;;5093510;28;20638;-88
2021/01/11 00:14:38;;;;;;;28.80;11.67;;;-5.30;99.90;;;;;;5093202;28;20979;-84
2021/01/11 00:17:04;;;;;;;17.60;9.37;;;-5.30;99.90;;;;;;5097666;28;20451;-85
2021/01/11 00:19:30;;;;;;;18.70;11.63;;;-5.40;99.90;;;;;;5093494;28;20460;-87
2021/01/11 00:21:57;;;;;;;28.00;12.50;;;-5.20;99.90;;;;;;5093340;28;20455;-86
2021/01/11 00:24:24;;;;;;;17.10;10.93;;;-5.40;99.90;;;;;;5093325;28;20503;-85
2021/01/11 00:26:51;;;;;;;21.30;11.47;;;-5.50;99.90;;;;;;5093142;28;20804;-87
2021/01/11 00:29:17;;;;;;;21.23;11.17;;;-5.30;99.90;;;;;;5093263;28;20464;-87
2021/01/11 00:31:43;;;;;;;21.83;11.00;;;-5.40;99.90;;;;;;5093247;28;20453;-86
2021/01/11 00:34:10;;;;;;;20.67;11.80;;;-5.40;99.90;;;;;;5092786;28;20552;-84
2021/01/11 00:36:37;;;;;;;21.63;11.70;;;-5.40;99.90;;;;;;5092367;28;20452;-86
2021/01/11 00:39:04;;;;;;;21.63;10.80;;;-5.50;99.90;;;;;;5090127;28;20458;-86
2021/01/11 00:41:31;;;;;;;23.50;11.20;;;-5.50;99.90;;;;;;5093071;28;20456;-87
2021/01/11 00:43:57;;;;;;;19.47;9.97;;;-5.50;99.90;;;;;;5093347;28;20851;-86
2021/01/11 00:46:24;;;;;;;17.50;9.27;;;-5.50;99.90;;;;;;5093187;28;20453;-86
2021/01/11 00:48:51;;;;;;;18.10;9.83;;;-5.60;99.90;;;;;;5093059;28;20449;-86
2021/01/11 00:51:19;;;;;;;16.00;9.70;;;-5.60;99.90;;;;;;5091915;28;20453;-87
2021/01/11 00:53:46;;;;;;;18.70;10.73;;;-5.60;99.90;;;;;;5092963;28;21072;-86
2021/01/11 00:56:13;;;;;;;18.83;10.60;;;-5.60;99.90;;;;;;5093123;28;20488;-88
2021/01/11 00:58:40;;;;;;;14.20;8.73;;;-5.60;99.90;;;;;;5092991;28;20452;-86
2021/01/11 01:01:07;;;;;;;14.97;9.30;;;-5.70;99.90;;;;;;5093156;28;20455;-85
2021/01/11 01:03:35;;;;;;;19.17;9.80;;;-5.70;99.90;;;;;;5088652;28;20462;-87
2021/01/11 01:06:01;;;;;;;14.93;9.50;;;-5.70;99.90;;;;;;5091811;28;20796;-86
2021/01/11 01:08:27;;;;;;;15.10;8.20;;;-5.80;99.90;;;;;;5088923;28;20498;-86
2021/01/11 01:10:55;;;;;;;14.20;8.83;;;-5.80;99.90;;;;;;5093228;28;20453;-86
2021/01/11 01:13:21;;;;;;;12.30;7.63;;;-5.80;99.90;;;;;;5092938;28;20484;-86
2021/01/11 01:15:48;;;;;;;15.23;7.27;;;-5.70;99.90;;;;;;5092929;28;20825;-86
2021/01/11 01:18:14;;;;;;;15.73;9.27;;;-5.80;99.90;;;;;;5092947;28;20446;-86
2021/01/11 01:20:40;;;;;;;13.67;9.23;;;-5.80;99.90;;;;;;5092174;28;20457;-85
2021/01/11 01:23:07;;;;;;;15.60;8.00;;;-5.80;99.90;;;;;;5092757;28;20941;-86
2021/01/11 01:25:33;;;;;;;13.00;8.00;;;-5.80;99.90;;;;;;5093826;28;20457;-85
2021/01/11 01:28:00;;;;;;;16.80;7.90;;;-5.80;99.90;;;;;;5096564;28;20457;-86
2021/01/11 01:30:26;;;;;;;11.83;7.40;;;-5.80;99.90;;;;;;5096489;28;20450;-87
2021/01/11 01:32:53;;;;;;;14.17;8.33;;;-5.80;99.90;;;;;;5096409;28;20477;-86
2021/01/11 01:35:19;;;;;;;11.13;7.03;;;-5.90;99.90;;;;;;5095281;28;20559;-86
2021/01/11 01:37:45;;;;;;;15.80;8.70;;;-5.90;99.90;;;;;;5096381;28;20936;-87
2021/01/11 01:40:12;;;;;;;16.63;8.80;;;-5.90;99.90;;;;;;5096934;28;20457;-86
2021/01/11 01:42:38;;;;;;;15.10;8.40;;;-5.90;99.90;;;;;;5092320;28;20446;-86
2021/01/11 01:45:06;;;;;;;15.03;8.03;;;-5.80;99.90;;;;;;5096441;28;20462;-86
2021/01/11 01:47:33;;;;;;;16.07;8.40;;;-5.90;99.90;;;;;;5092110;28;20512;-87
2021/01/11 01:50:02;;;;;;;12.90;8.03;;;-5.90;99.90;;;;;;5095311;28;20453;-86
2021/01/11 01:52:29;;;;;;;12.87;7.90;;;-5.90;99.90;;;;;;5096335;28;20463;-86
2021/01/11 01:54:55;;;;;;;13.90;7.80;;;-6.00;99.90;;;;;;5096086;28;20503;-87
2021/01/11 01:57:21;;;;;;;12.97;7.83;;;-6.00;99.90;;;;;;5098113;28;20939;-86
2021/01/11 01:59:49;;;;;;;13.73;7.57;;;-6.00;99.90;;;;;;5099144;28;20536;-86
2021/01/11 02:02:19;;;;;;;13.50;7.70;;;-6.00;99.90;;;;;;5096566;28;20962;-86
2021/01/11 02:04:45;;;;;;;15.33;8.00;;;-6.00;99.90;;;;;;5094658;28;20490;-88
2021/01/11 02:07:19;;;;;;;15.27;8.30;;;-6.00;99.90;;;;;;5095938;28;20452;-87
2021/01/11 02:09:57;;;;;;;12.97;7.60;;;-6.00;99.90;;;;;;5095834;28;20435;-87
2021/01/11 02:12:35;;;;;;;17.30;8.50;;;-6.00;99.90;;;;;;5095709;28;20461;-86
2021/01/11 02:15:08;;;;;;;17.37;9.10;;;-6.00;99.90;;;;;;5095837;28;20500;-87
2021/01/11 02:17:40;;;;;;;18.00;8.70;;;-6.00;99.90;;;;;;5095683;28;20452;-86
2021/01/11 02:20:40;;;;;;;15.60;9.10;;;-5.90;99.90;;;;;;5094383;28;20445;-87
2021/01/11 02:23:48;;;;;;;12.97;7.50;;;-6.00;99.90;;;;;;5095441;28;21009;-87
2021/01/11 02:26:32;;;;;;;12.17;7.63;;;-6.00;99.90;;;;;;5031399;28;20459;-86
2021/01/11 02:29:08;;;;;;;13.87;7.90;;;-6.10;99.90;;;;;;5095303;28;20445;-86
2021/01/11 02:31:36;;;;;;;12.33;7.27;;;-6.10;99.90;;;;;;5095507;28;20453;-84
2021/01/11 02:34:03;;;;;;;11.50;7.20;;;-6.10;99.90;;;;;;5098966;28;20491;-87
2021/01/11 02:36:30;;;;;;;18.90;9.80;;;-6.10;99.90;;;;;;5093910;28;20812;-86
2021/01/11 02:38:56;;;;;;;13.70;7.67;;;-6.20;99.90;;;;;;5094788;28;20783;-87
2021/01/11 02:41:22;;;;;;;15.00;8.53;;;-6.20;99.90;;;;;;5095081;28;20442;-86
2021/01/11 02:43:49;;;;;;;13.43;7.90;;;-6.20;99.90;;;;;;5095055;28;20449;-85
2021/01/11 02:46:15;;;;;;;13.80;6.43;;;-6.20;99.90;;;;;;5095125;28;20446;-86
2021/01/11 02:48:47;;;;;;;14.70;8.20;;;-6.20;99.90;;;;;;5095612;28;20451;-85
2021/01/11 02:51:20;;;;;;;15.40;8.13;;;-6.30;99.90;;;;;;5093903;28;20452;-86
2021/01/11 02:54:01;;;;;;;16.07;8.17;;;-6.30;99.90;;;;;;5094784;28;20583;-85
2021/01/11 02:56:32;;;;;;;12.57;7.67;;;-6.30;99.90;;;;;;5094825;28;20483;-86
2021/01/11 02:59:17;;;;;;;12.93;7.33;;;-6.30;99.90;;;;;;5095051;28;20449;-86
2021/01/11 03:01:49;;;;;;;12.93;7.60;;;-6.30;99.90;;;;;;5091552;28;20457;-86
2021/01/11 03:04:22;;;;;;;20.00;8.10;;;-6.30;99.90;;;;;;5093642;28;20510;-84
2021/01/11 03:06:58;;;;;;;14.43;8.10;;;-6.30;99.90;;;;;;5094513;28;20449;-85
2021/01/11 03:09:24;;;;;;;16.73;8.17;;;-6.40;99.90;;;;;;5094854;28;20448;-84
2021/01/11 03:11:51;;;;;;;14.60;7.90;;;-6.40;99.90;;;;;;5094519;28;20791;-86
2021/01/11 03:14:17;;;;;;;13.93;7.30;;;-6.40;99.90;;;;;;5094385;28;20500;-85
2021/01/11 03:16:44;;;;;;;14.83;7.83;;;-6.40;99.90;;;;;;5094444;28;20449;-86
2021/01/11 03:19:10;;;;;;;13.70;7.77;;;-6.40;99.90;;;;;;5094204;28;20445;-85
2021/01/11 03:21:38;;;;;;;13.30;7.33;;;-6.40;99.90;;;;;;5093704;28;20927;-86
2021/01/11 03:24:04;;;;;;;14.40;7.70;;;-6.40;99.90;;;;;;5094371;28;20461;-85
2021/01/11 03:26:31;;;;;;;13.10;7.80;;;-6.40;99.90;;;;;;5094322;28;20449;-85
2021/01/11 03:28:57;;;;;;;19.50;9.03;;;-6.40;99.90;;;;;;5088967;28;20456;-86
2021/01/11 03:31:23;;;;;;;15.67;8.40;;;-6.40;99.90;;;;;;5094045;28;20450;-86
2021/01/11 03:33:50;;;;;;;15.47;8.13;;;-6.40;99.90;;;;;;5088518;28;20477;-87
2021/01/11 03:36:17;;;;;;;13.40;7.60;;;-6.50;99.90;;;;;;5093152;28;20818;-87
2021/01/11 03:38:44;;;;;;;16.83;8.20;;;-6.50;99.90;;;;;;5093966;28;20449;-86
2021/01/11 03:41:11;;;;;;;16.83;8.87;;;-6.50;99.90;;;;;;5088824;28;20446;-85
2021/01/11 03:43:38;;;;;;;17.37;9.03;;;-6.50;99.90;;;;;;5093944;28;20455;-86
2021/01/11 03:46:04;;;;;;;14.00;8.13;;;-6.50;99.90;;;;;;5093753;28;20445;-87
2021/01/11 03:48:31;;;;;;;14.87;7.30;;;-6.60;99.90;;;;;;5093843;28;20808;-86
2021/01/11 03:50:57;;;;;;;12.60;7.77;;;-6.50;99.90;;;;;;5092641;28;20453;-86
2021/01/11 03:53:23;;;;;;;15.60;8.20;;;-6.50;99.90;;;;;;5094016;28;20449;-86
2021/01/11 03:55:50;;;;;;;15.30;8.93;;;-6.60;99.90;;;;;;5093728;28;20479;-87
2021/01/11 03:58:17;;;;;;;14.00;6.70;;;-6.50;99.90;;;;;;5093685;28;20464;-86
2021/01/11 04:00:43;;;;;;;16.73;8.50;;;-6.50;99.90;;;;;;5093686;28;20445;-86
2021/01/11 04:03:09;;;;;;;13.67;7.90;;;-6.50;99.90;;;;;;5093919;28;20460;-85
2021/01/11 04:05:35;;;;;;;13.50;8.30;;;-6.50;99.90;;;;;;5092467;28;20486;-85
2021/01/11 04:08:02;;;;;;;15.67;8.23;;;-6.50;99.90;;;;;;5093592;28;20806;-86
2021/01/11 04:10:29;;;;;;;14.37;9.27;;;-6.50;99.90;;;;;;5093499;28;20442;-85
2021/01/11 04:12:56;;;;;;;16.57;8.93;;;-6.60;99.90;;;;;;5093463;28;20432;-85
2021/01/11 04:15:22;;;;;;;15.27;7.97;;;-6.60;99.90;;;;;;5093510;28;20890;-86
2021/01/11 04:17:51;;;;;;;17.73;8.87;;;-6.60;99.90;;;;;;5093449;28;20449;-87
2021/01/11 04:20:17;;;;;;;17.00;9.13;;;-6.70;99.90;;;;;;5092113;28;20503;-85
2021/01/11 04:22:44;;;;;;;13.60;7.70;;;-6.70;99.90;;;;;;5093282;28;20460;-86
2021/01/11 04:25:11;;;;;;;15.03;7.33;;;-6.70;99.90;;;;;;5093170;28;20508;-85
2021/01/11 04:27:37;;;;;;;15.23;8.00;;;-6.70;99.90;;;;;;5093303;28;20488;-86
2021/01/11 04:30:08;;;;;;;13.10;7.80;;;-6.70;99.90;;;;;;5093304;28;20449;-86
2021/01/11 04:32:35;;;;;;;15.90;9.20;;;-6.70;99.90;;;;;;5093767;28;20469;-86
2021/01/11 04:35:01;;;;;;;15.63;8.23;;;-6.70;99.90;;;;;;5092385;28;20896;-86
2021/01/11 04:37:28;;;;;;;13.90;8.13;;;-6.70;99.90;;;;;;5093364;28;20460;-86
2021/01/11 04:39:54;;;;;;;14.00;7.80;;;-6.70;99.90;;;;;;5090062;28;20449;-85
2021/01/11 04:42:28;;;;;;;13.73;7.40;;;-6.70;99.90;;;;;;5093330;28;20460;-86
2021/01/11 04:44:58;;;;;;;21.73;7.60;;;-6.70;99.90;;;;;;5091299;28;20445;-84
2021/01/11 04:47:25;;;;;;;11.97;6.77;;;-6.70;99.90;;;;;;5084056;28;20945;-85
2021/01/11 04:49:53;;;;;;;19.13;8.37;;;-6.70;99.90;;;;;;5085560;28;20445;-86
2021/01/11 04:52:21;;;;;;;14.30;7.80;;;-5.60;99.90;;;;;;5090604;28;20452;-85
2021/01/11 04:54:50;;;;;;;16.20;9.23;;;-6.70;99.90;;;;;;5093210;28;20492;-86
2021/01/11 04:57:16;;;;;;;13.10;7.80;;;-6.70;99.90;;;;;;5093451;28;20441;-86
2021/01/11 04:59:49;;;;;;;12.90;7.10;;;-6.00;99.90;;;;;;5093240;28;20452;-84
2021/01/11 05:02:20;;;;;;;12.50;6.50;;;-6.70;99.90;;;;;;5092398;28;20460;-83
2021/01/11 05:04:48;;;;;;;13.27;7.63;;;-6.80;99.90;;;;;;5085095;28;20449;-86
2021/01/11 05:07:17;;;;;;;14.80;8.10;;;-6.80;99.90;;;;;;5090879;28;20445;-86
2021/01/11 05:09:45;;;;;;;15.13;8.33;;;-6.80;99.90;;;;;;5091422;28;20942;-86
2021/01/11 05:12:13;;;;;;;15.83;9.20;;;-6.80;99.90;;;;;;5084105;28;20864;-87
2021/01/11 05:14:41;;;;;;;16.50;8.63;;;-6.80;99.90;;;;;;5091918;28;20593;-85
2021/01/11 05:17:07;;;;;;;15.47;7.83;;;-6.90;99.90;;;;;;5092540;28;20434;-86
2021/01/11 05:19:35;;;;;;;15.77;8.17;;;-6.80;99.90;;;;;;5100870;28;20461;-84
2021/01/11 05:22:02;;;;;;;15.00;8.13;;;-6.80;99.90;;;;;;5100379;28;20451;-86
2021/01/11 05:24:33;;;;;;;15.43;8.33;;;-6.90;99.90;;;;;;5089702;28;20519;-86
2021/01/11 05:27:04;;;;;;;15.70;8.80;;;-6.90;99.90;;;;;;5090936;28;20801;-86
2021/01/11 05:29:31;;;;;;;12.60;7.57;;;-6.90;99.90;;;;;;5089469;28;20449;-86
2021/01/11 05:31:59;;;;;;;17.30;8.67;;;-7.10;99.90;;;;;;5091952;28;20452;-85
2021/01/11 05:34:45;;;;;;;14.17;6.87;;;-6.90;99.90;;;;;;5087614;28;20486;-85
2021/01/11 05:37:31;;;;;;;13.10;7.03;;;-6.90;99.90;;;;;;5088725;28;20441;-85
2021/01/11 05:40:04;;;;;;;11.63;7.00;;;-7.00;99.90;;;;;;5088827;28;20445;-85
2021/01/11 05:42:34;;;;;;;14.40;7.67;;;-7.00;99.90;;;;;;5089177;28;20445;-83
2021/01/11 05:45:14;;;;;;;18.80;8.47;;;-7.00;99.90;;;;;;5091596;28;20444;-84
2021/01/11 05:48:03;;;;;;;15.87;8.53;;;-7.00;99.90;;;;;;5090346;28;20486;-85
2021/01/11 05:50:32;;;;;;;13.97;8.63;;;-7.00;99.90;;;;;;5076181;28;20450;-85
2021/01/11 05:52:59;;;;;;;13.57;7.70;;;-6.50;99.90;;;;;;5084714;28;20437;-85
2021/01/11 05:55:32;;;;;;;11.27;6.53;;;-6.90;99.90;;;;;;5081863;28;20530;-85
2021/01/11 05:58:01;;;;;;;20.60;8.87;;;-7.00;99.90;;;;;;5085093;28;20438;-85
2021/01/11 06:00:32;;;;;;;19.27;9.00;;;-6.90;99.90;;;;;;5083734;28;20446;-87
2021/01/11 06:02:59;;;;;;;17.47;8.70;;;-6.90;99.90;;;;;;5084965;28;20437;-84
2021/01/11 06:05:27;;;;;;;18.83;8.10;;;-7.00;99.90;;;;;;5084386;28;20441;-83
2021/01/11 06:07:54;;;;;;;13.83;8.30;;;-6.90;99.90;;;;;;5084042;28;20417;-84
2021/01/11 06:10:23;;;;;;;15.90;7.77;;;-7.20;99.90;;;;;;5082795;28;20454;-85
2021/01/11 06:12:51;;;;;;;17.63;7.90;;;-6.90;99.90;;;;;;5092069;28;20441;-84
2021/01/11 06:15:19;;;;;;;17.73;7.83;;;-7.00;99.90;;;;;;5094996;28;20485;-85
2021/01/11 06:17:50;;;;;;;19.80;8.67;;;-7.00;99.90;;;;;;5094891;28;20955;-84
2021/01/11 06:20:18;;;;;;;12.87;8.03;;;-7.00;99.90;;;;;;5093377;28;20430;-84
2021/01/11 06:23:13;;;;;;;15.77;7.53;;;-7.00;99.90;;;;;;5091910;28;20434;-86
2021/01/11 06:25:44;;;;;;;16.07;8.07;;;-7.00;99.90;;;;;;5093386;28;20481;-85
2021/01/11 06:28:12;;;;;;;13.60;8.10;;;-7.00;99.90;;;;;;5092076;28;20479;-85
2021/01/11 06:30:47;;;;;;;19.43;9.93;;;-7.00;99.90;;;;;;5094659;28;20927;-85
2021/01/11 06:33:15;;;;;;;18.80;8.70;;;-6.90;99.90;;;;;;5092181;28;20519;-85
2021/01/11 06:35:43;;;;;;;15.80;9.40;;;-7.00;99.90;;;;;;5093403;28;20480;-85
2021/01/11 06:38:19;;;;;;;16.13;8.97;;;-6.80;99.90;;;;;;5094576;28;20448;-87
2021/01/11 06:40:52;;;;;;;20.53;9.10;;;-7.00;99.90;;;;;;5094174;28;20476;-86
2021/01/11 06:43:26;;;;;;;14.57;8.80;;;-7.00;99.90;;;;;;5094605;28;20969;-84
2021/01/11 06:45:53;;;;;;;16.23;9.17;;;-6.90;99.90;;;;;;5091738;28;20446;-84
2021/01/11 06:48:20;;;;;;;22.53;11.60;;;-6.90;99.90;;;;;;5094181;28;20439;-84
2021/01/11 06:50:49;;;;;;;22.37;10.93;;;-6.90;99.90;;;;;;5093025;28;20430;-85
2021/01/11 06:53:26;;;;;;;21.23;11.80;;;-6.80;99.90;;;;;;5094462;28;20517;-85
2021/01/11 06:56:04;;;;;;;23.47;12.20;;;-6.80;99.90;;;;;;5093866;28;20493;-86
2021/01/11 06:58:32;;;;;;;25.77;11.40;;;-6.80;99.90;;;;;;5087751;28;20444;-85
2021/01/11 07:01:04;;;;;;;20.97;11.63;;;-6.90;99.90;;;;;;5094267;28;20445;-85
2021/01/11 07:03:46;;;;;;;28.10;12.47;;;-6.90;99.90;;;;;;5094827;28;20769;-85
2021/01/11 07:06:34;;;;;;;19.40;12.10;;;-6.90;99.90;;;;;;5093954;28;20448;-85
2021/01/11 07:09:05;;;;;;;18.80;11.13;;;-6.80;99.90;;;;;;5094784;28;20441;-85
2021/01/11 07:11:34;;;;;;;21.17;10.23;;;-6.90;99.90;;;;;;5095734;28;21049;-85
2021/01/11 07:14:00;;;;;;;20.83;10.37;;;-6.80;99.90;;;;;;5095152;28;20561;-87
2021/01/11 07:16:44;;;;;;;17.20;9.63;;;-6.80;99.90;;;;;;5095115;28;20456;-85
2021/01/11 07:19:11;;;;;;;17.87;10.53;;;-6.80;99.90;;;;;;5090780;28;20461;-83
2021/01/11 07:21:37;;;;;;;21.63;11.20;;;-6.80;99.90;;;;;;5093583;28;20470;-88
2021/01/11 07:24:06;;;;;;;24.23;13.70;;;-6.80;99.90;;;;;;5093376;28;21168;-86
2021/01/11 07:26:34;;;;;;;22.50;13.20;;;-6.80;99.90;;;;;;5094724;28;20455;-84
2021/01/11 07:29:03;;;;;;;18.73;13.10;;;-6.80;99.90;;;;;;5094152;28;20453;-83
2021/01/11 07:31:32;;;;;;;39.47;18.70;;;-6.80;99.90;;;;;;5093406;28;20452;-87
2021/01/11 07:34:06;;;;;;;20.17;12.57;;;-6.80;99.90;;;;;;5094269;28;20811;-86
2021/01/11 07:36:34;;;;;;;24.80;14.20;;;-6.70;99.90;;;;;;5090254;28;20514;-86
2021/01/11 07:39:15;;;;;;;24.83;13.10;;;-6.70;99.90;;;;;;5094134;28;20449;-85
2021/01/11 07:41:43;;;;;;;28.40;16.00;;;-6.70;99.90;;;;;;5093680;28;20441;-84
2021/01/11 07:44:13;;;;;;;24.07;14.43;;;-6.70;99.90;;;;;;5094742;28;20455;-87
2021/01/11 07:46:40;;;;;;;30.87;15.97;;;-6.70;99.90;;;;;;5090037;28;20532;-84
2021/01/11 07:49:15;;;;;;;19.00;11.33;;;-6.60;99.90;;;;;;5092691;28;20438;-86
2021/01/11 07:51:43;;;;;;;26.33;12.93;;;-6.50;99.90;;;;;;5090935;28;20452;-84
2021/01/11 07:54:13;;;;;;;23.03;13.27;;;-6.40;99.90;;;;;;5092649;28;20480;-85
2021/01/11 07:56:39;;;;;;;21.70;12.87;;;-6.30;99.90;;;;;;5092698;28;20486;-86
2021/01/11 07:59:07;;;;;;;22.47;12.33;;;-6.20;99.90;;;;;;5084253;28;20450;-86
2021/01/11 08:01:37;;;;;;;22.23;11.57;;;-5.90;99.90;;;;;;5094208;28;20441;-85
2021/01/11 08:04:03;;;;;;;20.20;11.23;;;-5.80;99.90;;;;;;5093642;28;20452;-84
2021/01/11 08:06:31;;;;;;;23.17;11.60;;;-5.60;99.90;;;;;;5092201;28;20438;-84
2021/01/11 08:08:58;;;;;;;25.20;11.60;;;-5.50;99.90;;;;;;5094820;28;20445;-90
2021/01/11 08:11:25;;;;;;;19.30;10.67;;;-5.40;99.90;;;;;;5094576;28;20450;-86
2021/01/11 08:13:51;;;;;;;22.33;12.60;;;-5.30;99.90;;;;;;5091508;28;20450;-89
2021/01/11 08:16:20;;;;;;;5.40;4.77;;;-5.20;99.90;;;;;;5094159;28;20974;-86
2021/01/11 08:18:46;;;;;;;15.77;9.30;;;-5.00;99.90;;;;;;5042757;28;20943;-87
2021/01/11 08:21:15;;;;;;;19.27;11.70;;;-4.90;99.90;;;;;;5093190;28;20462;-89
2021/01/11 08:23:42;;;;;;;17.27;9.77;;;-4.70;99.90;;;;;;5094787;28;20955;-86
2021/01/11 08:26:10;;;;;;;22.27;12.03;;;-4.30;99.90;;;;;;5091621;28;20465;-88
2021/01/11 08:28:37;;;;;;;15.50;10.13;;;-4.00;99.90;;;;;;5088161;28;20452;-88
2021/01/11 08:31:04;;;;;;;20.93;12.47;;;-3.50;99.90;;;;;;5094833;28;20525;-87
2021/01/11 08:33:36;;;;;;;22.37;11.67;;;-3.10;99.90;;;;;;5089001;28;20948;-87
2021/01/11 08:36:18;;;;;;;16.73;10.33;;;-2.80;99.90;;;;;;5086319;28;20485;-87
2021/01/11 08:39:07;;;;;;;17.63;9.83;;;-2.60;99.90;;;;;;5094778;28;20501;-87
2021/01/11 08:41:36;;;;;;;16.07;9.27;;;-2.10;99.90;;;;;;5093797;28;20442;-87
2021/01/11 08:44:02;;;;;;;17.20;10.87;;;-1.10;99.90;;;;;;5091239;28;20452;-90
2021/01/11 08:46:51;;;;;;;15.60;9.30;;;-1.50;99.90;;;;;;5094074;28;20468;-89
2021/01/11 08:49:18;;;;;;;15.17;10.53;;;-1.30;99.90;;;;;;5071117;28;20485;-88
2021/01/11 08:51:47;;;;;;;10.97;6.90;;;-1.40;99.90;;;;;;5074555;28;20457;-88
2021/01/11 08:54:26;;;;;;;15.60;10.73;;;-1.60;99.90;;;;;;5074894;28;20488;-89
2021/01/11 08:56:54;;;;;;;16.27;10.87;;;-0.90;99.90;;;;;;5076744;28;20476;-89
2021/01/11 08:59:20;;;;;;;16.47;11.00;;;-0.60;99.90;;;;;;5075869;28;20503;-90
2021/01/11 09:01:47;;;;;;;6.27;3.03;;;-0.50;99.90;;;;;;5072374;28;20444;-90
2021/01/11 09:04:30;;;;;;;14.07;10.20;;;-0.50;99.90;;;;;;5075484;28;20450;-91
2021/01/11 09:06:59;;;;;;;9.97;6.30;;;-0.70;99.90;;;;;;5076049;28;20451;-89
2021/01/11 09:09:28;;;;;;;17.63;11.00;;;-0.40;99.90;;;;;;5075507;28;20450;-90
2021/01/11 09:12:01;;;;;;;17.33;10.80;;;-0.40;99.90;;;;;;5076164;28;20479;-90
2021/01/11 09:14:30;;;;;;;17.80;10.63;;;0.10;99.90;;;;;;5075061;28;20486;-89
2021/01/11 09:16:59;;;;;;;14.13;7.63;;;-1.00;99.90;;;;;;5075722;28;20450;-91
2021/01/11 09:19:25;;;;;;;13.67;9.23;;;;;;;;;;5075303;28;20453;-88
2021/01/11 09:22:01;;;;;;;20.03;11.63;;;-0.70;99.90;;;;;;5089170;28;20438;-89
2021/01/11 09:24:28;;;;;;;16.73;11.10;;;-0.60;99.90;;;;;;5074822;28;20437;-90
2021/01/11 09:26:56;;;;;;;15.03;9.90;;;0.20;99.90;;;;;;5071951;28;20455;-90
2021/01/11 09:29:23;;;;;;;14.00;9.80;;;0.40;99.90;;;;;;5076643;28;20445;-90
2021/01/11 09:31:50;;;;;;;11.50;9.53;;;;;;;;;;5072638;28;20480;-89
2021/01/11 09:34:18;;;;;;;12.90;9.03;;;0.30;99.90;;;;;;5073326;28;20508;-91
2021/01/11 09:36:45;;;;;;;13.43;8.83;;;;;;;;;;5072713;28;20510;-92
2021/01/11 09:39:14;;;;;;;8.27;6.07;;;0.80;99.90;;;;;;5091324;28;20454;-88
2021/01/11 09:41:45;;;;;;;13.33;9.27;;;1.10;99.90;;;;;;5094692;28;20472;-88
2021/01/11 09:44:12;;;;;;;13.73;8.77;;;;;;;;;;5094650;28;20470;-89
2021/01/11 09:46:43;;;;;;;14.03;9.57;;;1.40;99.90;;;;;;5095760;28;20448;-88
2021/01/11 09:49:10;;;;;;;10.70;5.50;;;;;;;;;;5092874;28;20518;-88
2021/01/11 09:51:37;;;;;;;15.63;8.67;;;;;;;;;;5081821;28;20444;-89
2021/01/11 09:54:07;;;;;;;13.67;10.57;;;1.10;99.90;;;;;;5086297;28;20936;-88
2021/01/11 09:56:35;;;;;;;14.03;10.37;;;1.20;99.90;;;;;;5075996;28;20489;-87
2021/01/11 09:59:01;;;;;;;15.47;9.70;;;;;;;;;;5085819;28;20473;-88
2021/01/11 10:01:36;;;;;;;14.73;9.53;;;1.50;99.90;;;;;;5101336;28;20498;-88
2021/01/11 10:04:03;;;;;;;12.40;7.70;;;;;;;;;;5098763;28;20515;-88
2021/01/11 10:06:39;;;;;;;17.43;10.13;;;2.10;99.90;;;;;;5098024;28;20639;-87
2021/01/11 10:09:10;;;;;;;15.23;10.30;;;;;;;;;;5098248;28;20454;-93
2021/01/11 10:11:37;;;;;;;14.20;9.67;;;3.00;99.50;;;;;;5097637;28;20451;-87
2021/01/11 10:14:05;;;;;;;14.13;9.43;;;2.30;99.90;;;;;;5096005;28;20464;-86
2021/01/11 10:16:32;;;;;;;14.30;10.27;;;;;;;;;;5096553;28;20474;-91
2021/01/11 10:19:01;;;;;;;16.50;12.03;;;;;;;;;;5098120;28;20456;-92
2021/01/11 10:21:28;;;;;;;13.20;9.60;;;;;;;;;;5096655;28;20503;-90
2021/01/11 10:23:55;;;;;;;13.67;9.80;;;;;;;;;;5098264;28;20450;-89
2021/01/11 10:26:23;;;;;;;14.10;10.27;;;2.20;99.90;;;;;;5096027;28;20474;-88
2021/01/11 10:28:51;;;;;;;11.40;8.00;;;1.50;99.90;;;;;;5091213;28;20453;-89
2021/01/11 10:31:19;;;;;;;15.07;12.03;;;;;;;;;;5093602;28;20450;-90
2021/01/11 10:33:47;;;;;;;13.60;9.53;;;2.00;99.90;;;;;;5098233;28;20451;-92
2021/01/11 10:36:19;;;;;;;15.60;10.30;;;2.80;99.90;;;;;;5095671;28;20667;-91
2021/01/11 10:38:47;;;;;;;14.43;9.60;;;3.00;99.90;;;;;;5098396;28;20445;-92
2021/01/11 10:41:16;;;;;;;13.60;8.90;;;2.80;99.80;;;;;;5108871;28;20838;-90
2021/01/11 10:43:43;;;;;;;16.00;11.83;;;3.00;99.90;;;;;;5119031;28;20810;-91
2021/01/11 10:46:12;;;;;;;13.23;9.20;;;2.80;99.90;;;;;;5098973;28;20795;-90
2021/01/11 10:48:39;;;;;;;14.10;10.50;;;;;;;;;;5076729;28;20456;-89
2021/01/11 10:51:08;;;;;;;12.20;9.60;;;3.90;99.90;;;;;;5082358;28;20458;-88
2021/01/11 10:53:34;;;;;;;14.30;10.10;;;;;;;;;;5095435;28;20554;-91
2021/01/11 10:56:01;;;;;;;15.37;9.93;;;;;;;;;;5074479;28;20495;-91
2021/01/11 10:58:30;;;;;;;13.57;10.73;;;5.10;99.90;;;;;;5078948;28;20446;-91
2021/01/11 11:00:57;;;;;;;13.23;9.90;;;;;;;;;;5087524;28;20473;-90
2021/01/11 11:03:24;;;;;;;11.50;9.27;;;3.50;99.90;;;;;;5096243;28;20503;-91
2021/01/11 11:05:50;;;;;;;12.70;9.00;;;;;;;;;;5097015;28;20852;-89
2021/01/11 11:08:17;;;;;;;11.03;8.90;;;;;;;;;;5091091;28;20509;-91
2021/01/11 11:10:44;;;;;;;10.90;8.03;;;;;;;;;;5096269;28;20442;-92
2021/01/11 11:13:10;;;;;;;14.13;9.23;;;;;;;;;;5096289;28;20853;-91
2021/01/11 11:15:37;;;;;;;13.17;9.23;;;;;;;;;;5093353;28;20485;-91
2021/01/11 11:18:03;;;;;;;14.47;10.47;;;;;;;;;;5091402;28;20512;-92
2021/01/11 11:20:30;;;;;;;10.23;7.40;;;2.30;98.70;;;;;;5088412;28;20464;-92
2021/01/11 11:23:00;;;;;;;10.33;8.20;;;2.10;99.90;;;;;;5095783;28;20453;-90
2021/01/11 11:25:26;;;;;;;11.80;8.67;;;1.90;99.90;;;;;;5090054;28;20866;-91
2021/01/11 11:27:53;;;;;;;14.53;9.10;;;;;;;;;;5092013;28;20814;-90
2021/01/11 11:30:21;;;;;;;14.30;9.30;;;;;;;;;;5090849;28;20455;-91
2021/01/11 11:32:48;;;;;;;12.43;8.97;;;;;;;;;;5096983;28;20975;-89
2021/01/11 11:35:19;;;;;;;13.33;9.63;;;2.70;99.90;;;;;;5092664;28;20980;-91
2021/01/11 11:37:47;;;;;;;14.07;9.43;;;2.70;98.60;;;;;;5121817;28;20427;-92
2021/01/11 11:40:14;;;;;;;11.10;8.40;;;2.90;99.90;;;;;;5104893;28;20456;-90
2021/01/11 11:42:41;;;;;;;11.87;9.03;;;;;;;;;;5096300;28;20447;-91
2021/01/11 11:45:10;;;;;;;11.97;8.50;;;3.10;99.90;;;;;;5096331;28;20980;-91
2021/01/11 11:47:37;;;;;;;12.60;6.37;;;2.80;97.50;;;;;;5095625;28;20519;-91
2021/01/11 11:50:07;;;;;;;10.20;7.00;;;2.20;99.90;;;;;;5111495;28;20456;-90
2021/01/11 11:52:33;;;;;;;7.50;5.17;;;;;;;;;;5013599;28;20512;-91
2021/01/11 11:55:01;;;;;;;12.40;8.00;;;2.00;99.90;;;;;;5012392;28;20503;-90
2021/01/11 11:57:27;;;;;;;12.10;8.27;;;;;;;;;;5013179;28;20936;-91
2021/01/11 11:59:56;;;;;;;10.87;7.80;;;3.50;99.90;;;;;;5032070;28;20446;-90
2021/01/11 12:02:23;;;;;;;14.07;8.47;;;;;;;;;;5024312;28;20496;-90
2021/01/11 12:04:49;;;;;;;14.77;8.97;;;;;;;;;;5007352;28;20466;-92
2021/01/11 12:07:16;;;;;;;13.57;9.37;;;;;;;;;;5008950;28;20453;-90
2021/01/11 12:09:43;;;;;;;11.97;7.97;;;;;;;;;;5029118;28;20436;-90
2021/01/11 12:12:13;;;;;;;13.50;9.40;;;3.20;99.90;;;;;;5032132;28;20469;-90
2021/01/11 12:14:39;;;;;;;13.63;8.53;;;3.30;99.90;;;;;;5033246;28;20472;-89
2021/01/11 12:17:06;;;;;;;9.80;7.10;;;;;;;;;;5031849;28;20448;-89
2021/01/11 12:19:32;;;;;;;10.00;6.93;;;3.30;99.90;;;;;;5027863;28;20449;-88
2021/01/11 12:21:59;;;;;;;11.30;8.23;;;;;;;;;;5044506;28;20471;-91
2021/01/11 12:24:33;;;;;;;14.40;9.90;;;3.40;97.30;;;;;;5088214;28;20748;-88
2021/01/11 12:26:59;;;;;;;14.63;9.97;;;;;;;;;;5094324;28;20449;-88
2021/01/11 12:29:26;;;;;;;16.03;11.00;;;4.00;96.60;;;;;;5092557;28;20433;-87
2021/01/11 12:31:53;;;;;;;17.60;11.60;;;;;;;;;;5094674;28;20507;-90
2021/01/11 12:34:20;;;;;;;15.00;7.20;;;;;;;;;;5086620;28;20449;-88
2021/01/11 12:36:46;;;;;;;13.10;7.80;;;;;;;;;;5095068;28;20453;-89
2021/01/11 12:39:13;;;;;;;11.20;8.80;;;;;;;;;;5095170;28;20437;-90
2021/01/11 12:41:40;;;;;;;12.10;8.50;;;;;;;;;;5093770;28;20450;-88
2021/01/11 12:44:08;;;;;;;10.63;7.30;;;3.60;99.90;;;;;;5094502;28;20469;-89
2021/01/11 12:46:36;;;;;;;12.27;8.13;;;3.60;99.90;;;;;;5093961;28;20439;-87
2021/01/11 12:49:03;;;;;;;8.47;5.90;;;;;;;;;;5093013;28;20811;-89
2021/01/11 12:51:29;;;;;;;12.60;7.70;;;;;;;;;;5093129;28;20448;-87
2021/01/11 12:53:56;;;;;;;10.47;7.00;;;;;;;;;;5094466;28;20448;-87
2021/01/11 12:56:25;;;;;;;11.00;7.00;;;3.60;96.10;;;;;;5094667;28;20511;-92
2021/01/11 12:59:11;;;;;;;9.13;6.37;;;3.80;99.90;;;;;;5094879;28;20936;-90
2021/01/11 13:01:39;;;;;;;7.93;6.23;;;3.90;99.90;;;;;;5097264;28;20804;-89